Time;durP1;ratioP1;P1;durP2;ratioP2;P2;SDS_P1;SDS_P2;PMS_P1;PMS_P2;Temp;Humidity;BMP_temperature;BMP_pressure;BME280_temperature;BME280_humidity;BME280_pressure;Samples;Min_cycle;Max_cycle;Signal;HPM_P1;HPM_P2
2022/03/23 00:00:37;;;;;;;25.13;18.87;;;5.90;99.90;;;6.47;59.39;-19947.19;5011158;28;20228;-57
2022/03/23 00:03:05;;;;;;;24.30;18.37;;;5.80;99.90;;;6.47;60.54;-19947.00;5011514;28;20228;-57
2022/03/23 00:05:33;;;;;;;26.63;18.80;;;5.80;99.90;;;6.37;61.63;-19943.75;5010717;28;20247;-55
2022/03/23 00:08:03;;;;;;;27.70;20.27;;;5.70;99.90;;;6.46;61.86;-19946.66;5011149;28;20243;-56
2022/03/23 00:10:31;;;;;;;25.73;19.57;;;5.70;99.90;;;6.33;62.62;-19942.38;5011217;28;20755;-58
2022/03/23 00:12:59;;;;;;;23.30;17.60;;;5.70;99.90;;;6.26;63.48;-19939.81;5011095;28;20299;-54
2022/03/23 00:15:28;;;;;;;24.40;18.67;;;5.60;99.90;;;6.33;63.77;-19942.22;5010834;28;20227;-55
2022/03/23 00:17:56;;;;;;;24.17;18.63;;;5.60;99.90;;;6.22;62.78;-19938.63;5010914;28;20230;-57
2022/03/23 00:20:25;;;;;;;27.13;18.47;;;5.50;99.90;;;6.17;63.17;-19937.09;5010878;28;20323;-56
2022/03/23 00:22:54;;;;;;;27.43;19.33;;;5.50;99.90;;;6.13;63.28;-19935.56;5011522;28;20337;-55
2022/03/23 00:25:23;;;;;;;26.40;18.97;;;5.50;99.90;;;6.09;63.11;-19934.34;5011334;28;20230;-59
2022/03/23 00:27:51;;;;;;;27.37;19.10;;;5.40;99.90;;;6.06;63.22;-19933.34;5010527;28;20240;-57
2022/03/23 00:30:19;;;;;;;25.27;18.80;;;5.40;99.90;;;6.05;63.96;-19932.81;5010801;28;20323;-56
2022/03/23 00:32:47;;;;;;;27.10;19.30;;;5.30;99.90;;;6.21;64.30;-19938.28;5010876;28;20228;-57
2022/03/23 00:35:15;;;;;;;25.57;18.40;;;5.30;99.90;;;6.13;63.63;-19935.56;5010435;28;20314;-56
2022/03/23 00:37:43;;;;;;;28.03;18.53;;;5.40;99.90;;;6.03;63.83;-19932.13;5003081;28;20200;-57
2022/03/23 00:40:12;;;;;;;26.67;20.20;;;5.30;99.90;;;6.22;63.26;-19938.47;4991879;28;20355;-56
2022/03/23 00:42:42;;;;;;;24.57;18.17;;;5.40;99.90;;;6.22;62.98;-19938.63;4991105;28;20308;-57
2022/03/23 00:45:11;;;;;;;25.53;17.90;;;5.40;99.90;;;6.03;63.85;-19932.31;4991031;28;20313;-56
2022/03/23 00:47:39;;;;;;;25.03;18.00;;;5.40;99.90;;;5.94;65.46;-19929.06;4991227;28;20227;-57
2022/03/23 00:50:09;;;;;;;27.80;19.83;;;5.30;99.90;;;5.85;66.11;-19925.97;5008186;28;20231;-55
2022/03/23 00:52:37;;;;;;;28.17;18.67;;;5.30;99.90;;;5.83;66.74;-19925.47;5011136;28;20594;-59
2022/03/23 00:55:09;;;;;;;26.43;19.27;;;5.20;99.90;;;6.00;64.93;-19931.13;5010929;28;20259;-57
2022/03/23 00:57:37;;;;;;;24.37;19.03;;;5.20;99.90;;;6.09;63.25;-19934.34;5010248;28;20307;-55
2022/03/23 01:00:12;;;;;;;27.17;19.37;;;5.20;99.90;;;6.19;62.57;-19937.59;5010488;28;20226;-55
2022/03/23 01:02:40;;;;;;;25.73;18.77;;;5.20;99.90;;;6.21;62.51;-19938.28;5010613;28;20230;-54
2022/03/23 01:05:10;;;;;;;29.07;19.30;;;5.30;99.90;;;6.14;62.79;-19935.88;5010227;28;20313;-57
2022/03/23 01:07:38;;;;;;;28.20;19.40;;;5.30;99.90;;;5.94;63.86;-19929.06;5010687;28;20211;-54
2022/03/23 01:10:11;;;;;;;26.90;19.70;;;5.20;99.90;;;5.72;65.39;-19921.69;5010928;28;20207;-56
2022/03/23 01:12:39;;;;;;;26.57;19.13;;;5.10;99.90;;;5.62;66.85;-19918.28;5010204;28;20415;-55
2022/03/23 01:15:11;;;;;;;27.23;19.23;;;5.10;99.90;;;5.59;67.67;-19917.25;5010297;28;20306;-56
2022/03/23 01:17:39;;;;;;;26.23;19.33;;;5.00;99.90;;;5.50;68.25;-19914.00;5012361;28;20301;-57
2022/03/23 01:20:12;;;;;;;29.53;19.60;;;4.90;99.90;;;5.48;67.83;-19913.34;5013960;28;20259;-55
2022/03/23 01:22:43;;;;;;;26.43;18.97;;;4.80;99.90;;;5.39;68.83;-19910.25;5013835;28;20657;-56
2022/03/23 01:25:16;;;;;;;28.13;19.23;;;4.80;99.90;;;5.42;69.05;-19911.28;5014290;28;20261;-56
2022/03/23 01:27:45;;;;;;;28.87;19.37;;;4.70;99.90;;;5.34;68.93;-19908.53;5013423;28;20283;-55
2022/03/23 01:30:17;;;;;;;27.30;19.80;;;4.70;99.90;;;5.35;69.58;-19909.06;5013193;28;20224;-56
2022/03/23 01:32:46;;;;;;;28.73;19.13;;;4.70;99.90;;;5.28;70.02;-19906.66;5013848;28;20236;-57
2022/03/23 01:35:15;;;;;;;25.20;19.50;;;4.60;99.90;;;5.21;70.50;-19904.28;5013698;28;20307;-57
2022/03/23 01:37:43;;;;;;;29.23;19.70;;;4.60;99.90;;;5.19;70.92;-19903.41;5005985;28;20287;-57
2022/03/23 01:40:13;;;;;;;26.67;19.23;;;4.50;99.90;;;5.17;71.68;-19902.72;4994677;28;20307;-58
2022/03/23 01:42:42;;;;;;;26.93;19.33;;;4.50;99.90;;;5.31;71.52;-19907.53;4993800;28;20231;-56
2022/03/23 01:45:11;;;;;;;27.60;19.50;;;4.50;99.90;;;5.43;70.11;-19911.78;5000764;28;20224;-58
2022/03/23 01:47:40;;;;;;;28.83;19.87;;;4.50;99.90;;;5.48;69.52;-19913.50;5013231;28;20698;-55
2022/03/23 01:50:10;;;;;;;29.40;20.30;;;4.60;99.90;;;5.41;69.36;-19910.94;5013499;28;20249;-55
2022/03/23 01:52:39;;;;;;;30.57;20.53;;;4.60;99.90;;;5.22;70.55;-19904.44;5013518;28;20557;-56
2022/03/23 01:55:11;;;;;;;26.87;19.87;;;4.60;99.90;;;5.13;71.47;-19901.38;5013759;28;20290;-57
2022/03/23 01:57:42;;;;;;;26.57;20.47;;;4.50;99.90;;;5.17;72.40;-19902.72;5012843;28;20391;-58
2022/03/23 02:00:15;;;;;;;29.57;20.87;;;4.50;99.90;;;5.21;72.16;-19904.09;5013157;28;20245;-59
2022/03/23 02:02:45;;;;;;;31.87;21.10;;;4.50;99.90;;;5.16;71.92;-19902.56;5013259;28;20313;-57
2022/03/23 02:05:15;;;;;;;26.50;18.90;;;4.40;99.90;;;5.14;72.17;-19901.72;5013141;28;20650;-57
2022/03/23 02:07:46;;;;;;;25.73;18.83;;;4.40;99.90;;;5.44;71.17;-19912.13;5012883;28;20206;-57
2022/03/23 02:10:14;;;;;;;25.93;20.10;;;4.50;99.90;;;5.53;70.50;-19915.22;5013443;28;20278;-56
2022/03/23 02:12:43;;;;;;;25.93;19.03;;;4.60;99.90;;;5.54;70.06;-19915.56;5013093;28;20246;-56
2022/03/23 02:15:14;;;;;;;27.33;20.13;;;4.60;99.90;;;5.67;70.79;-19919.81;5013045;28;20321;-56
2022/03/23 02:17:44;;;;;;;30.23;20.43;;;4.70;99.90;;;5.60;70.16;-19917.59;5012738;28;20313;-57
2022/03/23 02:20:14;;;;;;;25.40;20.07;;;4.70;99.90;;;5.50;70.95;-19914.19;5012812;28;20227;-55
2022/03/23 02:22:44;;;;;;;25.97;19.00;;;4.70;99.90;;;5.39;71.50;-19910.25;5013305;28;20288;-56
2022/03/23 02:25:12;;;;;;;27.90;20.57;;;4.70;99.90;;;5.27;72.65;-19906.16;5013120;28;20739;-54
2022/03/23 02:27:41;;;;;;;27.57;18.90;;;4.60;99.90;;;5.27;72.73;-19906.16;5012275;28;20219;-57
2022/03/23 02:30:11;;;;;;;27.03;19.97;;;4.60;99.90;;;5.21;73.57;-19904.09;5011913;28;20235;-55
2022/03/23 02:32:39;;;;;;;25.70;20.10;;;4.50;99.90;;;5.11;74.03;-19900.69;5012710;28;20320;-54
2022/03/23 02:35:08;;;;;;;29.67;20.80;;;4.40;99.90;;;4.95;75.01;-19895.56;5012612;28;20301;-55
2022/03/23 02:37:36;;;;;;;25.60;19.43;;;4.40;99.90;;;4.96;75.50;-19895.72;5005642;28;20290;-55
2022/03/23 02:40:08;;;;;;;26.87;19.13;;;4.30;99.90;;;4.97;75.96;-19896.06;4993263;28;20199;-56
2022/03/23 02:42:38;;;;;;;26.33;20.23;;;4.30;99.90;;;5.26;74.91;-19905.81;5009112;28;20226;-56
2022/03/23 02:45:10;;;;;;;27.03;19.63;;;4.30;99.90;;;5.45;73.44;-19912.47;5010545;28;20666;-55
2022/03/23 02:47:39;;;;;;;25.87;18.80;;;4.40;99.90;;;5.19;74.55;-19903.59;5012370;28;20309;-55
2022/03/23 02:50:07;;;;;;;26.33;19.10;;;4.40;99.90;;;4.97;75.41;-19896.22;5012208;28;20720;-58
2022/03/23 03:01:51;;;;;;;27.17;19.77;;;4.30;99.90;;;4.86;76.64;-19892.47;5012232;28;20212;-54
2022/03/23 03:04:08;;;;;;;24.40;18.63;;;4.20;99.90;;;5.07;75.40;-19899.31;5012212;28;20693;-56
2022/03/23 03:06:36;;;;;;;27.73;19.23;;;4.20;99.90;;;5.06;74.81;-19899.13;5011890;28;20240;-56
2022/03/23 03:09:05;;;;;;;27.23;19.30;;;4.20;99.90;;;5.05;75.15;-19898.63;5011930;28;20230;-57
2022/03/23 03:11:35;;;;;;;25.57;18.90;;;4.20;99.90;;;4.90;76.16;-19893.84;5011649;28;20316;-56
2022/03/23 03:14:03;;;;;;;29.80;18.37;;;4.20;99.90;;;4.86;76.75;-19892.47;5011603;28;20743;-56
2022/03/23 03:16:31;;;;;;;25.83;18.03;;;4.10;99.90;;;4.76;77.72;-19889.06;5012458;28;20198;-56
2022/03/23 03:18:59;;;;;;;25.70;17.70;;;4.10;99.90;;;4.72;77.44;-19887.50;5011733;28;20231;-56
2022/03/23 03:21:27;;;;;;;26.30;18.87;;;4.00;99.90;;;4.65;78.08;-19885.28;5011712;28;20237;-55
2022/03/23 03:23:55;;;;;;;23.70;18.00;;;4.00;99.90;;;4.65;78.29;-19885.28;5011545;28;20231;-55
2022/03/23 03:26:24;;;;;;;25.07;18.47;;;4.00;99.90;;;4.76;78.06;-19888.88;5011614;28;20254;-57
2022/03/23 03:28:53;;;;;;;27.33;18.20;;;4.00;99.90;;;4.97;76.47;-19896.06;5011414;28;20300;-55
2022/03/23 03:31:21;;;;;;;25.43;18.80;;;4.00;99.90;;;4.98;76.39;-19896.59;5012028;28;20649;-56
2022/03/23 03:33:49;;;;;;;25.77;18.77;;;4.00;99.90;;;4.86;76.69;-19892.31;5011542;28;20265;-57
2022/03/23 03:36:17;;;;;;;25.43;18.47;;;4.00;99.90;;;4.64;77.50;-19884.78;5011416;28;20233;-57
2022/03/23 03:38:46;;;;;;;27.00;18.63;;;3.90;99.90;;;4.38;78.92;-19876.06;5010674;28;20230;-58
2022/03/23 03:41:14;;;;;;;25.23;18.00;;;3.80;99.90;;;4.51;79.20;-19880.50;5010859;28;20239;-57
2022/03/23 03:43:42;;;;;;;29.37;18.60;;;3.80;99.90;;;4.50;78.83;-19880.00;5011398;28;20206;-56
2022/03/23 03:46:11;;;;;;;27.40;19.23;;;3.70;99.90;;;4.65;78.46;-19885.28;5011943;28;20313;-58
2022/03/23 03:48:41;;;;;;;27.77;19.13;;;3.80;99.90;;;4.49;79.18;-19879.66;5011021;28;20738;-57
2022/03/23 03:51:10;;;;;;;24.70;18.07;;;3.70;99.90;;;4.36;80.25;-19875.22;5011128;28;20256;-56
2022/03/23 03:53:38;;;;;;;27.67;19.27;;;3.60;99.90;;;4.35;81.05;-19875.03;5011259;28;20309;-57
2022/03/23 03:56:09;;;;;;;25.83;19.80;;;3.60;99.90;;;4.34;81.29;-19874.53;5011159;28;20232;-53
2022/03/23 03:58:38;;;;;;;23.77;18.57;;;3.60;99.90;;;4.20;82.16;-19869.75;5010999;28;20318;-58
2022/03/23 04:01:09;;;;;;;26.93;19.87;;;3.50;99.90;;;4.24;82.37;-19871.13;5011392;28;20699;-55
2022/03/23 04:03:39;;;;;;;28.13;19.73;;;3.50;99.90;;;4.21;83.86;-19870.25;5011187;28;20239;-57
2022/03/23 04:06:07;;;;;;;28.90;19.00;;;3.50;99.90;;;4.27;83.22;-19872.13;5011171;28;20388;-57
2022/03/23 04:08:35;;;;;;;33.07;19.83;;;3.50;99.90;;;4.20;83.60;-19869.91;5010711;28;20716;-56
2022/03/23 04:11:05;;;;;;;28.60;19.73;;;3.40;99.90;;;4.30;83.39;-19873.16;5010954;28;20241;-57
2022/03/23 04:13:33;;;;;;;28.27;19.53;;;3.50;99.90;;;4.23;83.97;-19870.94;5011004;28;20201;-55
2022/03/23 04:16:02;;;;;;;28.20;19.03;;;3.40;99.90;;;4.18;84.54;-19869.06;5011386;28;20206;-58
2022/03/23 04:18:31;;;;;;;27.07;19.50;;;3.40;99.90;;;4.03;84.93;-19864.09;5010558;28;20225;-56
2022/03/23 04:21:01;;;;;;;27.40;19.13;;;3.40;99.90;;;4.01;85.78;-19863.41;5010939;28;20311;-56
2022/03/23 04:23:34;;;;;;;28.90;18.93;;;3.30;99.90;;;3.99;86.23;-19862.72;5009567;28;20277;-56
2022/03/23 04:26:03;;;;;;;27.17;19.23;;;3.30;99.90;;;3.86;86.86;-19858.13;5010786;28;20732;-55
2022/03/23 04:28:32;;;;;;;28.50;19.30;;;3.20;99.90;;;4.06;86.29;-19864.97;5011086;28;20628;-56
2022/03/23 04:31:01;;;;;;;23.83;18.37;;;3.30;99.90;;;3.99;86.13;-19862.72;5010997;28;20303;-55
2022/03/23 04:33:29;;;;;;;25.93;19.63;;;3.20;99.90;;;4.01;85.93;-19863.25;5011011;28;20253;-53
2022/03/23 04:35:57;;;;;;;29.20;19.17;;;3.20;99.90;;;4.13;86.23;-19867.53;5010844;28;20252;-57
2022/03/23 04:38:27;;;;;;;27.80;18.93;;;3.30;99.90;;;4.18;85.61;-19869.22;4997043;28;20226;-55
2022/03/23 04:40:55;;;;;;;28.20;18.50;;;3.30;99.90;;;4.29;84.36;-19872.81;4991086;28;20334;-57
2022/03/23 04:43:24;;;;;;;27.47;19.00;;;3.30;99.90;;;4.02;85.71;-19863.75;4991717;28;20210;-56
2022/03/23 04:45:51;;;;;;;25.57;18.17;;;3.30;99.90;;;3.96;86.27;-19861.53;4991039;28;20232;-58
2022/03/23 04:48:19;;;;;;;28.03;19.83;;;3.20;99.90;;;3.86;87.73;-19858.28;4991064;28;20241;-56
2022/03/23 04:50:48;;;;;;;27.47;19.70;;;3.20;99.90;;;3.82;87.80;-19856.94;4990879;28;20319;-57
2022/03/23 04:53:16;;;;;;;24.50;19.50;;;3.10;99.90;;;3.72;88.63;-19853.69;4994230;28;20271;-55
2022/03/23 04:55:46;;;;;;;27.10;19.80;;;3.10;99.90;;;3.65;89.17;-19851.13;4994417;28;20301;-55
2022/03/23 04:58:14;;;;;;;27.83;20.03;;;3.10;99.90;;;3.70;89.59;-19852.81;4994988;28;20205;-54
2022/03/23 05:00:42;;;;;;;28.53;19.80;;;3.00;99.90;;;3.82;89.22;-19856.94;4994796;28;20254;-56
2022/03/23 05:03:13;;;;;;;27.13;19.83;;;3.00;99.90;;;3.86;88.72;-19858.28;4994693;28;20234;-57
2022/03/23 05:05:43;;;;;;;25.23;19.00;;;3.00;99.90;;;3.88;88.04;-19858.97;4994318;28;20222;-59
2022/03/23 05:08:11;;;;;;;26.33;19.30;;;3.10;99.90;;;3.95;88.30;-19861.38;4994177;28;20237;-56
2022/03/23 05:10:39;;;;;;;23.47;18.70;;;3.10;99.90;;;3.96;88.27;-19861.72;4995338;28;20290;-59
2022/03/23 05:13:09;;;;;;;24.87;19.20;;;3.10;99.90;;;3.96;88.47;-19861.53;5014714;28;20208;-55
2022/03/23 05:15:36;;;;;;;25.23;18.47;;;3.10;99.90;;;3.96;88.50;-19861.72;5013479;28;20223;-55
2022/03/23 05:18:06;;;;;;;26.63;19.97;;;3.10;99.90;;;3.99;88.61;-19862.56;5013995;28;20234;-59
2022/03/23 05:20:36;;;;;;;24.33;18.53;;;3.10;99.90;;;3.91;88.88;-19859.84;5013700;28;20231;-56
2022/03/23 05:23:04;;;;;;;31.07;20.50;;;3.10;99.90;;;3.91;89.21;-19859.84;5013891;28;20648;-54
2022/03/23 05:25:32;;;;;;;26.07;20.23;;;3.10;99.90;;;3.92;89.47;-19860.34;5013883;28;20224;-56
2022/03/23 05:28:01;;;;;;;27.17;19.53;;;3.10;99.90;;;4.09;88.35;-19866.16;5014374;28;20227;-56
2022/03/23 05:30:30;;;;;;;27.03;20.20;;;3.20;99.90;;;4.10;88.74;-19866.50;5013476;28;20809;-57
2022/03/23 05:32:58;;;;;;;30.43;21.07;;;3.20;99.90;;;4.07;88.67;-19865.47;5013578;28;20785;-55
2022/03/23 05:35:26;;;;;;;29.53;19.60;;;3.20;99.90;;;3.89;89.81;-19859.31;5013586;28;20226;-55
2022/03/23 05:37:54;;;;;;;29.40;19.90;;;3.20;99.90;;;3.78;90.47;-19855.56;5004423;28;20319;-58
2022/03/23 05:40:23;;;;;;;25.13;19.70;;;3.20;99.90;;;3.97;90.82;-19862.06;4994594;28;20210;-58
2022/03/23 05:42:52;;;;;;;26.50;20.43;;;3.20;99.90;;;4.06;90.30;-19865.13;4993446;28;20315;-57
2022/03/23 05:45:24;;;;;;;27.57;18.97;;;3.20;99.90;;;4.07;90.44;-19865.47;4993792;28;20282;-53
2022/03/23 05:47:53;;;;;;;30.27;19.67;;;3.30;99.90;;;4.18;90.12;-19869.22;4993757;28;20234;-56
2022/03/23 05:50:22;;;;;;;31.63;20.07;;;3.30;99.90;;;4.17;90.10;-19868.72;4993687;28;20229;-53
2022/03/23 05:52:49;;;;;;;26.50;20.00;;;3.40;99.90;;;4.19;89.36;-19869.56;4993752;28;20237;-57
2022/03/23 05:55:18;;;;;;;28.17;20.53;;;3.50;99.90;;;4.41;88.88;-19877.09;4994201;28;20206;-55
2022/03/23 05:57:46;;;;;;;27.13;19.63;;;3.60;99.90;;;4.55;87.67;-19881.72;4993299;28;20226;-54
2022/03/23 06:00:15;;;;;;;28.57;20.00;;;3.70;99.90;;;4.59;87.14;-19883.25;4993600;28;20416;-58
2022/03/23 06:02:47;;;;;;;27.40;20.47;;;3.80;99.90;;;4.78;86.57;-19889.75;4993281;28;20306;-57
2022/03/23 06:05:17;;;;;;;30.43;20.83;;;3.90;99.90;;;4.72;87.15;-19887.50;4993551;28;20226;-55
2022/03/23 06:07:45;;;;;;;28.93;19.90;;;4.00;99.90;;;4.74;86.98;-19888.19;4993304;28;20272;-57
2022/03/23 06:10:14;;;;;;;31.23;21.03;;;4.00;99.90;;;5.22;84.53;-19904.44;4993376;28;20617;-56
2022/03/23 06:12:42;;;;;;;28.10;20.60;;;4.00;99.90;;;5.26;84.29;-19905.81;5010072;28;20316;-57
2022/03/23 06:15:11;;;;;;;33.50;20.80;;;4.20;99.90;;;5.41;83.59;-19910.94;5012320;28;20747;-57
2022/03/23 06:17:40;;;;;;;26.60;19.43;;;4.30;99.90;;;5.08;84.74;-19899.81;5012448;28;20280;-55
2022/03/23 06:20:09;;;;;;;27.33;20.03;;;4.30;99.90;;;5.13;84.51;-19901.38;5012499;28;20223;-58
2022/03/23 06:22:39;;;;;;;26.80;19.70;;;4.40;99.90;;;5.15;84.14;-19902.22;5012446;28;20716;-55
2022/03/23 06:25:09;;;;;;;31.17;21.57;;;4.40;99.90;;;5.36;83.00;-19909.41;5012984;28;20297;-57
2022/03/23 06:27:38;;;;;;;31.87;21.20;;;4.40;99.90;;;5.27;83.95;-19906.16;5012011;28;20231;-54
2022/03/23 06:30:08;;;;;;;27.43;20.77;;;4.50;99.90;;;5.34;82.26;-19908.72;5012272;28;20253;-56
2022/03/23 06:32:36;;;;;;;31.43;21.80;;;4.50;99.90;;;5.31;82.53;-19907.53;5012299;28;20421;-56
2022/03/23 06:35:06;;;;;;;29.37;21.47;;;4.60;99.90;;;5.40;81.35;-19910.75;5012944;28;20306;-57
2022/03/23 06:37:34;;;;;;;31.00;21.47;;;4.60;99.90;;;5.50;80.58;-19914.00;5011800;28;20242;-54
2022/03/23 06:40:05;;;;;;;30.00;21.57;;;4.70;99.90;;;5.65;80.34;-19919.31;5013020;28;20206;-56
2022/03/23 06:42:33;;;;;;;26.37;19.53;;;4.80;99.90;;;6.03;77.59;-19932.13;5011813;28;20348;-56
2022/03/23 06:45:02;;;;;;;26.70;19.83;;;4.90;99.90;;;5.74;78.95;-19922.38;5012142;28;20632;-58
2022/03/23 06:47:30;;;;;;;29.30;20.00;;;5.00;99.90;;;5.81;78.61;-19924.59;5011723;28;20312;-57
2022/03/23 06:49:58;;;;;;;26.03;19.83;;;5.00;99.90;;;5.93;77.32;-19928.88;5012233;28;20229;-56
2022/03/23 06:52:31;;;;;;;29.83;19.73;;;5.10;99.90;;;5.96;77.83;-19929.75;5012797;28;20658;-57
2022/03/23 06:54:59;;;;;;;28.03;19.73;;;5.20;99.90;;;6.31;74.79;-19941.53;5012624;28;20305;-57
2022/03/23 06:57:29;;;;;;;25.60;19.70;;;5.30;99.90;;;6.40;73.46;-19944.78;5011641;28;20575;-58
2022/03/23 06:59:57;;;;;;;27.90;19.77;;;5.40;99.90;;;6.39;72.92;-19944.44;5010934;28;20227;-56
2022/03/23 07:02:25;;;;;;;26.60;19.10;;;5.50;99.90;;;6.39;72.00;-19944.28;5011886;28;20222;-56
2022/03/23 07:04:53;;;;;;;24.67;18.93;;;5.60;99.90;;;6.45;72.29;-19946.31;4993783;28;20238;-56
2022/03/23 07:07:21;;;;;;;26.07;19.43;;;5.60;99.90;;;6.63;71.35;-19952.47;4996970;28;20209;-58
2022/03/23 07:09:48;;;;;;;28.40;19.00;;;5.70;99.90;;;6.69;71.19;-19954.53;5011728;28;20307;-55
2022/03/23 07:12:17;;;;;;;29.23;20.43;;;5.80;99.90;;;6.82;71.16;-19959.13;5011167;28;20242;-57
2022/03/23 07:14:48;;;;;;;26.27;19.30;;;5.90;99.90;;;6.92;69.99;-19962.38;5010910;28;20302;-56
2022/03/23 07:17:17;;;;;;;27.53;19.93;;;6.00;99.90;;;7.23;67.79;-19973.16;5011548;28;20228;-58
2022/03/23 07:19:45;;;;;;;26.93;19.87;;;6.20;99.90;;;7.28;67.08;-19974.84;5011867;28;20283;-58
2022/03/23 07:22:15;;;;;;;28.10;19.07;;;6.30;99.90;;;7.42;66.12;-19979.47;5012096;28;20227;-56
2022/03/23 07:24:44;;;;;;;24.13;19.10;;;6.40;99.90;;;7.33;67.12;-19976.56;5011818;28;20220;-61
2022/03/23 07:27:13;;;;;;;26.67;18.40;;;6.50;99.90;;;7.61;64.17;-19985.78;5011022;28;20228;-58
2022/03/23 07:29:49;;;;;;;23.70;17.87;;;6.50;99.90;;;7.58;63.45;-19984.94;5011223;28;20738;-58
2022/03/23 07:32:17;;;;;;;25.07;18.60;;;6.60;99.90;;;7.62;63.91;-19986.13;5011471;28;20250;-56
2022/03/23 07:34:45;;;;;;;27.33;19.60;;;6.70;99.90;;;7.64;63.94;-19986.81;5011394;28;20207;-58
2022/03/23 07:37:13;;;;;;;25.73;18.50;;;6.70;99.90;;;7.94;63.24;-19997.25;5007654;28;20618;-60
2022/03/23 07:39:41;;;;;;;25.90;18.70;;;6.90;99.90;;;8.06;62.57;-20001.16;4992257;28;20253;-60
2022/03/23 07:42:10;;;;;;;24.67;18.33;;;7.00;99.90;;;8.20;61.17;-20005.97;5004865;28;20235;-60
2022/03/23 07:44:39;;;;;;;23.57;18.27;;;7.10;99.90;;;8.17;61.58;-20004.94;5010658;28;20228;-61
2022/03/23 07:47:10;;;;;;;26.00;19.93;;;7.20;99.90;;;8.35;60.30;-20011.25;5010982;28;20229;-60
2022/03/23 07:49:38;;;;;;;26.57;19.97;;;7.30;99.90;;;8.62;59.22;-20020.31;5010641;28;20244;-60
2022/03/23 07:52:11;;;;;;;26.00;19.73;;;7.50;99.90;;;8.65;58.95;-20021.34;4999345;28;20645;-59
2022/03/23 07:54:40;;;;;;;26.17;19.00;;;7.60;99.90;;;8.69;58.84;-20022.72;4999773;28;20278;-60
2022/03/23 07:57:08;;;;;;;24.47;18.43;;;7.70;99.90;;;8.84;58.72;-20027.66;4998973;28;20684;-59
2022/03/23 07:59:37;;;;;;;26.10;19.00;;;7.80;99.90;;;9.01;57.60;-20033.63;5010371;28;20232;-59
2022/03/23 08:02:05;;;;;;;26.70;19.40;;;8.00;99.90;;;9.08;57.11;-20035.84;4995558;28;20325;-60
2022/03/23 08:04:35;;;;;;;27.87;19.03;;;8.10;99.90;;;9.23;56.18;-20040.97;4990923;28;20251;-57
2022/03/23 08:07:03;;;;;;;27.10;19.17;;;8.20;99.90;;;9.29;56.28;-20043.03;4990780;28;20669;-54
2022/03/23 08:09:32;;;;;;;28.30;19.57;;;8.30;99.90;;;9.49;56.01;-20049.88;4996358;28;20256;-52
2022/03/23 08:12:01;;;;;;;24.30;19.80;;;8.40;99.90;;;9.57;54.05;-20052.78;5009724;28;20657;-55
2022/03/23 08:14:29;;;;;;;24.43;18.80;;;8.40;99.90;;;9.73;53.59;-20058.06;5010194;28;20257;-60
2022/03/23 08:16:57;;;;;;;24.70;17.93;;;8.60;99.90;;;9.88;53.25;-20063.03;5010076;28;20246;-58
2022/03/23 08:19:25;;;;;;;24.17;18.70;;;8.70;99.90;;;9.91;52.16;-20064.03;5010181;28;20295;-58
2022/03/23 08:21:54;;;;;;;25.67;18.13;;;8.80;99.90;;;9.88;52.71;-20063.34;5010538;28;20301;-60
2022/03/23 08:24:22;;;;;;;23.17;18.60;;;8.80;99.90;;;10.16;50.82;-20072.75;5011368;28;20299;-58
2022/03/23 08:26:50;;;;;;;24.23;18.97;;;8.90;99.90;;;10.23;50.45;-20074.97;5004630;28;20261;-59
2022/03/23 08:29:18;;;;;;;28.37;18.90;;;9.00;99.90;;;10.20;49.80;-20073.97;4994359;28;20270;-56
2022/03/23 08:31:47;;;;;;;22.37;18.33;;;9.10;99.90;;;10.30;50.18;-20077.53;4994635;28;20741;-58
2022/03/23 08:34:15;;;;;;;21.50;17.77;;;9.20;99.90;;;10.40;49.44;-20080.78;4994601;28;20223;-59
2022/03/23 08:36:43;;;;;;;26.07;19.57;;;9.30;99.90;;;10.67;50.06;-20090.19;4994684;28;20565;-58
2022/03/23 08:39:12;;;;;;;26.77;20.40;;;9.50;99.90;;;10.72;49.63;-20091.88;4994356;28;20237;-61
2022/03/23 08:41:40;;;;;;;24.47;19.50;;;9.50;99.90;;;10.72;50.12;-20091.72;4994436;28;20262;-61
2022/03/23 08:44:09;;;;;;;24.10;19.87;;;9.60;99.90;;;10.91;49.01;-20098.38;4994380;28;20358;-57
2022/03/23 08:46:37;;;;;;;22.93;19.70;;;9.70;99.90;;;11.11;48.15;-20104.88;4994245;28;20306;-59
2022/03/23 08:49:05;;;;;;;23.67;19.50;;;9.90;99.90;;;11.16;47.15;-20106.56;4993890;28;20321;-58
2022/03/23 08:51:33;;;;;;;26.33;18.27;;;10.00;99.90;;;11.27;46.72;-20110.50;4994919;28;20274;-58
2022/03/23 08:54:01;;;;;;;24.77;18.70;;;10.10;99.90;;;11.24;47.00;-20109.47;4994372;28;20351;-59
2022/03/23 08:56:30;;;;;;;28.07;19.60;;;10.10;99.90;;;11.40;46.94;-20114.94;4993962;28;20352;-58
2022/03/23 08:58:59;;;;;;;24.20;18.93;;;10.20;99.90;;;11.41;47.39;-20115.28;4993914;28;20229;-59
2022/03/23 09:01:27;;;;;;;22.03;18.63;;;10.20;99.90;;;11.72;47.12;-20125.88;5005385;28;20297;-58
2022/03/23 09:04:00;;;;;;;25.47;19.27;;;10.40;99.90;;;11.74;46.23;-20126.38;5013861;28;20288;-59
2022/03/23 09:06:28;;;;;;;23.47;18.63;;;10.50;99.90;;;11.89;45.09;-20131.53;5014245;28;20187;-58
2022/03/23 09:08:56;;;;;;;25.47;20.63;;;10.60;99.90;;;11.99;44.51;-20134.94;5013639;28;20243;-57
2022/03/23 09:11:24;;;;;;;26.30;20.30;;;10.70;99.90;;;12.10;44.69;-20138.69;5013638;28;20718;-59
2022/03/23 09:13:54;;;;;;;22.30;18.70;;;10.80;99.90;;;12.18;44.74;-20141.41;5013429;28;20235;-58
2022/03/23 09:16:22;;;;;;;25.33;19.87;;;10.90;99.90;;;12.21;44.83;-20142.44;5013546;28;20349;-59
2022/03/23 09:18:50;;;;;;;25.33;20.13;;;11.00;99.90;;;12.24;44.67;-20143.47;5013066;28;20733;-58
2022/03/23 09:21:18;;;;;;;25.60;20.17;;;11.00;99.90;;;12.37;44.38;-20147.91;5013860;28;20689;-58
2022/03/23 09:23:46;;;;;;;24.67;20.20;;;11.10;99.90;;;12.46;44.42;-20150.81;5013514;28;20280;-58
2022/03/23 09:26:14;;;;;;;25.77;20.90;;;11.20;99.90;;;12.62;44.13;-20156.28;5013437;28;20222;-59
2022/03/23 09:28:42;;;;;;;24.70;20.13;;;11.30;99.90;;;12.68;44.28;-20158.50;5012848;28;20309;-57
2022/03/23 09:31:12;;;;;;;31.37;22.20;;;11.40;99.90;;;12.77;44.18;-20161.56;5013534;28;20305;-59
2022/03/23 09:33:40;;;;;;;24.53;19.93;;;11.50;99.90;;;12.89;44.23;-20165.50;5014095;28;20253;-57
2022/03/23 09:37:47;;;;;;;27.67;20.30;;;11.60;99.90;;;13.00;44.73;-20169.25;5013019;28;20250;-56
2022/03/23 09:39:09;;;;;;;26.70;21.03;;;11.70;99.90;;;13.04;44.24;-20170.78;5008707;28;20716;-60
2022/03/23 09:41:38;;;;;;;30.37;21.43;;;11.80;99.90;;;13.17;43.22;-20175.22;5013149;28;20266;-59
2022/03/23 09:44:06;;;;;;;27.03;21.03;;;11.90;99.90;;;13.56;42.01;-20188.19;5012431;28;20733;-58
2022/03/23 09:46:37;;;;;;;24.23;20.47;;;12.10;99.90;;;13.50;42.48;-20186.31;5013050;28;20344;-59
2022/03/23 09:49:06;;;;;;;24.17;20.00;;;12.20;99.90;;;13.64;41.45;-20191.09;5012797;28;20183;-59
2022/03/23 09:51:38;;;;;;;27.30;21.10;;;12.30;99.90;;;13.67;42.06;-20191.94;5013311;28;20206;-58
2022/03/23 09:54:07;;;;;;;24.67;20.40;;;12.40;99.90;;;13.79;41.65;-20196.22;5012717;28;20230;-58
2022/03/23 09:56:35;;;;;;;25.73;21.17;;;12.50;99.90;;;13.87;41.56;-20198.94;5012321;28;20231;-52
2022/03/23 09:59:06;;;;;;;26.50;20.30;;;12.60;99.90;;;14.08;40.17;-20206.13;5012307;28;20236;-56
2022/03/23 10:02:26;;;;;;;25.47;20.43;;;12.80;99.90;;;14.06;40.23;-20205.28;5000092;28;20309;-59
2022/03/23 10:05:54;;;;;;;25.90;20.67;;;12.80;99.90;;;14.07;39.86;-20205.78;4993022;28;20235;-58
2022/03/23 10:09:01;;;;;;;24.50;19.77;;;12.80;99.90;;;14.28;39.55;-20212.78;4992785;28;20306;-59
2022/03/23 10:12:41;;;;;;;28.17;20.97;;;12.90;99.90;;;14.41;39.62;-20217.22;4993070;28;20762;-58
2022/03/23 10:16:04;;;;;;;23.27;20.70;;;13.10;99.90;;;14.57;38.85;-20222.84;4987553;28;20227;-59
2022/03/23 10:18:57;;;;;;;25.60;20.30;;;13.20;99.90;;;14.74;38.39;-20228.50;5012456;28;20257;-57
2022/03/23 10:21:28;;;;;;;25.80;21.03;;;13.30;99.90;;;14.82;36.78;-20231.03;4993512;28;20301;-56
2022/03/23 10:24:31;;;;;;;24.73;20.83;;;13.50;99.90;;;14.71;37.81;-20227.47;5012060;28;20293;-57
2022/03/23 10:27:00;;;;;;;25.27;20.63;;;13.50;99.90;;;14.73;37.77;-20227.97;5012020;28;20584;-59
2022/03/23 10:29:30;;;;;;;26.00;20.17;;;13.50;99.90;;;14.89;38.03;-20233.44;4994452;28;20309;-59
2022/03/23 10:32:05;;;;;;;25.83;20.50;;;13.50;99.90;;;15.09;37.45;-20240.44;5012025;28;20223;-55